Time;durP1;ratioP1;P1;durP2;ratioP2;P2;SDS_P1;SDS_P2;PMS_P1;PMS_P2;Temp;Humidity;BMP_temperature;BMP_pressure;BME280_temperature;BME280_humidity;BME280_pressure;Samples;Min_cycle;Max_cycle;Signal;HPM_P1;HPM_P2
2023/12/16 00:03:43;;;;;;;15.77;3.40;;;;;;;19.05;40.33;103858.19;16115843;19;130514;-51
2023/12/16 00:09:05;;;;;;;16.73;3.58;;;;;;;19.02;40.64;103858.53;16117711;19;130853;-54
2023/12/16 00:14:27;;;;;;;9.95;3.22;;;;;;;18.97;40.68;103857.34;16113385;19;130386;-52
2023/12/16 00:19:49;;;;;;;20.77;3.30;;;;;;;18.87;40.77;103860.31;16119814;19;130807;-53
2023/12/16 00:25:12;;;;;;;12.95;3.05;;;;;;;18.82;40.61;103862.75;16123300;19;129526;-54
2023/12/16 00:30:34;;;;;;;11.73;2.83;;;;;;;18.75;40.85;103851.50;16117427;19;131461;-52
2023/12/16 00:35:56;;;;;;;12.07;2.95;;;;;;;18.69;40.71;103853.06;16118672;19;130345;-50
2023/12/16 00:41:18;;;;;;;15.07;3.53;;;;;;;18.66;40.88;103853.41;16121956;19;130521;-49
2023/12/16 00:46:40;;;;;;;12.30;2.95;;;;;;;18.64;40.64;103852.72;16114452;19;130715;-53
2023/12/16 00:52:03;;;;;;;10.35;3.03;;;;;;;18.60;40.88;103856.88;16117547;19;133904;-50
2023/12/16 00:57:25;;;;;;;7.85;2.40;;;;;;;18.55;40.47;103859.31;16115879;19;129557;-48
2023/12/16 01:02:47;;;;;;;13.35;3.13;;;;;;;18.51;40.86;103869.03;16117025;19;130021;-52
2023/12/16 01:08:08;;;;;;;16.05;3.50;;;;;;;18.48;40.64;103855.50;16110385;19;129355;-52
2023/12/16 01:13:31;;;;;;;10.35;2.92;;;;;;;18.43;40.91;103851.34;16114616;19;130471;-50
2023/12/16 01:18:53;;;;;;;15.73;3.33;;;;;;;18.39;40.99;103846.31;16113116;19;129834;-49
2023/12/16 01:24:15;;;;;;;9.55;2.92;;;;;;;18.35;40.97;103858.78;16113300;19;131038;-47
2023/12/16 01:29:37;;;;;;;6.30;2.83;;;;;;;18.32;40.60;103857.22;16113054;19;131172;-48
2023/12/16 01:34:58;;;;;;;8.48;2.58;;;;;;;18.28;40.89;103855.81;16113239;19;129844;-43
2023/12/16 01:40:20;;;;;;;10.02;2.97;;;;;;;18.26;40.64;103858.78;16116218;19;129037;-46
2023/12/16 01:45:43;;;;;;;9.98;2.38;;;;;;;18.25;41.09;103857.03;16113340;19;130425;-45
2023/12/16 01:51:05;;;;;;;7.35;2.30;;;;;;;18.22;41.12;103850.94;16112528;19;131338;-47
2023/12/16 01:56:29;;;;;;;8.23;2.83;;;;;;;18.19;40.62;103852.16;16114647;19;131293;-47
2023/12/16 02:01:51;;;;;;;9.13;2.22;;;;;;;18.18;40.80;103855.13;16111682;19;129815;-45
2023/12/16 02:07:12;;;;;;;9.82;2.30;;;;;;;18.14;40.82;103861.00;16112946;19;130232;-48
2023/12/16 02:12:35;;;;;;;8.85;2.10;;;;;;;18.14;40.83;103857.38;16112615;19;129603;-48
2023/12/16 02:17:57;;;;;;;8.10;2.25;;;;;;;18.10;40.70;103853.22;16112385;19;133210;-49
2023/12/16 02:23:19;;;;;;;5.18;1.98;;;;;;;18.08;40.65;103856.16;16114311;19;130422;-44
2023/12/16 02:28:41;;;;;;;5.35;2.00;;;;;;;18.07;41.03;103854.44;16108155;19;130259;-51
2023/12/16 02:34:03;;;;;;;5.65;2.30;;;;;;;18.05;40.74;103855.63;16109978;19;130230;-47
2023/12/16 02:39:25;;;;;;;6.07;2.00;;;;;;;18.02;40.89;103840.22;16109783;19;129786;-46
2023/12/16 02:44:47;;;;;;;7.63;2.08;;;;;;;18.00;40.67;103842.28;16112853;19;131197;-48
2023/12/16 02:50:09;;;;;;;5.35;1.70;;;;;;;17.96;40.88;103836.22;16108564;19;131183;-49
2023/12/16 02:55:31;;;;;;;6.72;2.55;;;;;;;17.96;40.67;103840.91;16107071;19;131590;-46
2023/12/16 03:00:53;;;;;;;5.18;2.05;;;;;;;17.94;41.06;103831.91;16109614;19;129157;-47
2023/12/16 03:06:15;;;;;;;6.13;1.95;;;;;;;17.92;41.04;103834.81;16106701;19;131163;-48
2023/12/16 03:11:39;;;;;;;6.00;1.80;;;;;;;17.91;40.67;103837.78;16096171;19;130146;-47
2023/12/16 03:17:00;;;;;;;4.70;1.80;;;;;;;17.89;40.75;103835.19;16092008;19;130536;-45
2023/12/16 03:22:22;;;;;;;4.88;1.90;;;;;;;17.87;41.13;103841.91;16096699;19;132058;-50
2023/12/16 03:27:45;;;;;;;4.43;2.30;;;;;;;17.85;41.14;103845.72;16119116;19;132213;-49
2023/12/16 03:33:10;;;;;;;4.45;1.50;;;;;;;17.83;40.72;103842.28;16116421;19;132579;-45
2023/12/16 03:38:31;;;;;;;4.60;1.70;;;;;;;17.81;40.67;103838.78;16118285;19;132085;-48
2023/12/16 03:43:53;;;;;;;5.68;2.10;;;;;;;17.79;41.03;103840.88;16118983;19;130072;-45
2023/12/16 03:49:15;;;;;;;5.03;1.48;;;;;;;17.79;40.97;103851.06;16116537;19;129867;-44
2023/12/16 03:54:37;;;;;;;5.22;1.90;;;;;;;17.77;40.80;103862.31;16122476;19;129921;-48
2023/12/16 04:00:00;;;;;;;3.53;1.77;;;;;;;17.75;40.84;103856.06;16119820;19;131265;-46
2023/12/16 04:05:22;;;;;;;5.32;1.27;;;;;;;17.74;41.07;103859.03;16122168;19;130628;-44
2023/12/16 04:10:44;;;;;;;3.95;1.60;;;;;;;17.73;41.03;103873.91;16115613;19;130426;-46
2023/12/16 04:16:06;;;;;;;4.93;1.58;;;;;;;17.71;40.94;103871.31;16112676;19;129608;-48
2023/12/16 04:21:28;;;;;;;3.30;1.50;;;;;;;17.70;41.15;103883.41;16116086;19;130289;-49
2023/12/16 04:26:50;;;;;;;5.28;2.08;;;;;;;17.69;40.69;103881.69;16116223;19;129742;-52
2023/12/16 04:32:12;;;;;;;5.82;1.55;;;;;;;17.67;40.83;103875.44;16113669;19;131645;-48
2023/12/16 04:37:34;;;;;;;3.00;1.30;;;;;;;17.65;40.95;103875.63;16118625;19;131287;-46
2023/12/16 04:42:56;;;;;;;3.83;1.50;;;;;;;17.64;41.11;103875.75;16119863;19;131604;-50
2023/12/16 04:48:18;;;;;;;4.80;1.60;;;;;;;17.62;40.73;103861.22;16111722;19;130395;-44
2023/12/16 04:53:40;;;;;;;3.20;1.50;;;;;;;17.60;40.93;103858.63;16121064;19;131946;-48
2023/12/16 04:59:02;;;;;;;4.18;1.80;;;;;;;17.58;41.08;103855.16;16115280;19;131609;-46
2023/12/16 05:04:24;;;;;;;3.55;1.30;;;;;;;17.56;40.71;103857.22;16112947;19;129983;-49
2023/12/16 05:09:47;;;;;;;5.15;1.70;;;;;;;17.55;40.84;103855.47;16116259;19;130226;-47
2023/12/16 05:15:09;;;;;;;3.45;1.40;;;;;;;17.54;40.81;103853.72;16110958;19;131026;-44
2023/12/16 05:20:31;;;;;;;3.53;1.50;;;;;;;17.52;41.05;103844.75;16112925;19;131273;-47
2023/12/16 05:25:53;;;;;;;3.25;1.27;;;;;;;17.52;41.12;103851.13;16115855;19;129666;-43
2023/12/16 05:31:15;;;;;;;3.13;1.20;;;;;;;17.49;41.10;103851.44;16113976;19;130596;-47
2023/12/16 05:36:37;;;;;;;3.30;1.38;;;;;;;17.48;40.92;103855.25;16116368;19;131394;-46
2023/12/16 05:41:59;;;;;;;3.13;1.42;;;;;;;17.48;40.65;103849.72;16115792;19;131097;-46
2023/12/16 05:47:21;;;;;;;3.67;1.50;;;;;;;17.47;41.04;103855.44;16113982;19;133780;-50
2023/12/16 05:52:44;;;;;;;2.42;1.30;;;;;;;17.46;40.66;103850.94;16114562;19;131061;-52
2023/12/16 05:58:06;;;;;;;3.28;1.73;;;;;;;17.43;40.84;103845.72;16115071;19;129753;-47
2023/12/16 06:03:28;;;;;;;4.70;1.40;;;;;;;17.43;41.00;103845.72;16111556;19;131514;-49
2023/12/16 06:08:50;;;;;;;3.28;1.33;;;;;;;17.42;40.76;103843.97;16101251;19;129858;-46
2023/12/16 06:14:12;;;;;;;3.75;1.52;;;;;;;17.52;40.90;103845.59;16106850;19;129581;-48
2023/12/16 06:19:34;;;;;;;3.10;1.38;;;;;;;17.77;40.55;103854.00;16107443;19;131706;-48
2023/12/16 06:24:58;;;;;;;3.05;1.33;;;;;;;18.07;40.21;103859.09;16110644;19;131508;-46
2023/12/16 06:30:20;;;;;;;2.80;1.52;;;;;;;18.34;39.48;103860.66;16109816;19;129695;-44
2023/12/16 06:35:42;;;;;;;2.80;1.48;;;;;;;18.56;39.26;103853.59;16106826;19;131514;-45
2023/12/16 06:41:04;;;;;;;2.70;1.10;;;;;;;18.74;39.31;103853.41;16107233;19;131436;-50
2023/12/16 06:46:26;;;;;;;5.57;1.40;;;;;;;18.87;38.92;103855.66;16108763;19;131079;-46
2023/12/16 06:51:48;;;;;;;3.30;1.27;;;;;;;18.98;38.85;103862.72;16108293;19;131489;-46
2023/12/16 06:57:10;;;;;;;2.97;1.10;;;;;;;19.04;38.41;103867.56;16106063;19;134029;-47
2023/12/16 07:02:32;;;;;;;4.63;1.65;;;;;;;19.06;38.40;103875.69;16111473;19;131712;-48
2023/12/16 07:07:54;;;;;;;3.22;1.35;;;;;;;19.11;38.33;103872.38;16103327;19;129987;-45
2023/12/16 07:13:16;;;;;;;3.45;1.40;;;;;;;19.12;38.25;103880.56;16108209;19;129886;-47
2023/12/16 07:18:38;;;;;;;3.63;1.40;;;;;;;19.12;38.17;103879.66;16108091;19;130362;-47
2023/12/16 07:24:00;;;;;;;2.80;1.27;;;;;;;19.07;38.66;103883.88;16109531;19;129950;-44
2023/12/16 07:29:22;;;;;;;3.35;1.27;;;;;;;19.00;38.54;103893.91;16104468;19;131443;-49
2023/12/16 07:34:44;;;;;;;3.75;1.50;;;;;;;18.91;38.77;103895.00;16101495;19;131907;-49
2023/12/16 07:40:10;;;;;;;3.60;1.35;;;;;;;18.81;38.82;103886.84;16101491;19;130465;-46
2023/12/16 07:45:34;;;;;;;2.35;1.25;;;;;;;18.70;38.65;103888.09;16102941;19;129598;-44
2023/12/16 07:50:56;;;;;;;2.33;1.30;;;;;;;18.63;38.97;103889.81;16102243;19;131425;-45
2023/12/16 07:56:23;;;;;;;5.55;1.20;;;;;;;18.58;38.93;103895.03;16105804;19;130753;-48
2023/12/16 08:01:53;;;;;;;3.90;1.55;;;;;;;18.56;38.80;103906.28;16104905;19;129837;-46
2023/12/16 08:07:15;;;;;;;4.80;1.30;;;;;;;18.53;38.82;103914.06;16102568;19;129793;-48
2023/12/16 08:12:37;;;;;;;5.22;1.60;;;;;;;18.55;38.77;103914.78;16119698;19;133422;-46
2023/12/16 08:17:59;;;;;;;5.20;1.70;;;;;;;18.74;38.40;103906.09;16116508;19;129604;-47
2023/12/16 08:23:21;;;;;;;4.95;1.35;;;;;;;18.94;38.65;103922.38;16117162;19;131213;-47
2023/12/16 08:28:43;;;;;;;7.35;1.73;;;;;;;19.12;38.28;103930.50;16116517;19;130237;-47
2023/12/16 08:34:05;;;;;;;4.78;1.73;;;;;;;19.26;37.91;103942.81;16117337;19;129726;-47
2023/12/16 08:39:27;;;;;;;12.68;2.08;;;;;;;19.38;37.24;103941.41;16120126;19;130216;-43
2023/12/16 08:44:49;;;;;;;15.18;2.20;;;;;;;19.48;37.14;103948.66;16116794;19;130356;-45
2023/12/16 08:50:11;;;;;;;9.63;2.10;;;;;;;19.56;37.43;103953.31;16112143;19;129809;-51
2023/12/16 08:55:33;;;;;;;11.10;2.00;;;;;;;19.65;36.96;103957.78;16111187;19;131368;-45
2023/12/16 09:00:55;;;;;;;7.53;1.95;;;;;;;19.74;37.06;103961.41;16115146;19;129651;-46
2023/12/16 09:06:21;;;;;;;9.68;2.47;;;;;;;19.80;36.95;103949.59;16107120;19;131409;-46
2023/12/16 09:11:44;;;;;;;;;;;;;;;19.83;36.85;103960.31;16119178;19;130130;-49
2023/12/16 09:17:06;;;;;;;9.02;2.15;;;;;;;19.82;36.93;103964.13;16113582;19;130157;-49
2023/12/16 09:22:28;;;;;;;16.15;2.13;;;;;;;19.72;36.95;103963.47;16111594;19;132148;-47
2023/12/16 09:27:50;;;;;;;12.80;2.15;;;;;;;19.60;36.92;103961.09;16118197;19;129536;-49
2023/12/16 09:33:12;;;;;;;14.00;2.67;;;;;;;19.49;37.19;103953.16;16115144;19;129407;-46
2023/12/16 09:38:34;;;;;;;8.25;1.60;;;;;;;19.44;36.83;103961.16;16116039;19;130190;-46
2023/12/16 09:43:58;;;;;;;10.77;2.13;;;;;;;19.38;37.01;103960.81;16115442;19;130674;-49
2023/12/16 09:49:21;;;;;;;9.23;2.35;;;;;;;19.33;37.02;103954.06;16113126;19;129557;-45
2023/12/16 09:54:43;;;;;;;10.52;2.10;;;;;;;19.26;36.61;103964.16;16114538;19;129790;-49
2023/12/16 10:00:06;;;;;;;5.65;1.92;;;;;;;19.22;36.99;103966.41;16116464;19;130083;-48
2023/12/16 10:05:32;;;;;;;6.57;1.98;;;;;;;19.18;36.94;103967.78;16112641;19;128909;-49
2023/12/16 10:10:59;;;;;;;5.10;2.05;;;;;;;19.15;36.51;103968.13;16114523;19;129700;-47
2023/12/16 10:16:34;;;;;;;10.00;2.08;;;;;;;19.11;36.95;103964.84;16113343;19;130381;-47
2023/12/16 10:21:56;;;;;;;9.88;2.50;;;;;;;19.07;36.82;103969.00;16115364;19;129468;-51
2023/12/16 10:27:19;;;;;;;6.00;1.80;;;;;;;19.03;36.96;103965.72;16104216;19;131189;-44
2023/12/16 10:32:41;;;;;;;7.47;2.35;;;;;;;19.01;36.63;103953.91;16105123;19;130320;-47
2023/12/16 10:38:04;;;;;;;14.32;2.28;;;;;;;18.97;36.52;103940.56;16101504;19;131803;-48
2023/12/16 10:43:26;;;;;;;12.48;2.70;;;;;;;18.97;36.65;103941.44;16106204;19;130586;-50
2023/12/16 10:48:52;;;;;;;14.25;3.20;;;;;;;18.98;37.01;103939.53;16105194;19;131730;-49
2023/12/16 10:54:28;;;;;;;9.00;2.17;;;;;;;18.98;37.20;103934.84;16103575;19;131495;-47
2023/12/16 11:00:23;;;;;;;13.13;2.40;;;;;;;19.01;37.52;103926.19;16103240;19;129857;-49
2023/12/16 11:05:56;;;;;;;10.43;2.53;;;;;;;19.02;37.35;103936.25;16097995;19;131568;-55
2023/12/16 11:11:19;;;;;;;7.75;2.15;;;;;;;19.02;37.94;103930.69;16103436;19;129640;-55
2023/12/16 11:16:42;;;;;;;11.85;2.40;;;;;;;19.01;38.05;103928.09;16104987;19;131063;-56
2023/12/16 11:22:04;;;;;;;16.70;2.63;;;;;;;19.00;38.00;103921.66;16103030;19;129727;-61
2023/12/16 11:27:31;;;;;;;16.05;2.30;;;;;;;18.98;38.38;103918.19;16103259;19;131075;-62
2023/12/16 11:32:55;;;;;;;13.57;2.80;;;;;;;18.91;38.17;103911.63;16109939;19;131400;-47
2023/12/16 11:38:47;;;;;;;25.88;2.40;;;;;;;18.98;38.34;103907.09;16104385;19;130864;-56
2023/12/16 11:44:11;;;;;;;19.13;2.33;;;;;;;19.14;38.19;103903.41;16119490;19;129612;-74
2023/12/16 11:49:33;;;;;;;21.85;2.38;;;;;;;19.30;38.32;103905.34;16114094;19;130630;-45
2023/12/16 11:54:56;;;;;;;18.35;2.88;;;;;;;19.40;38.30;103909.81;16125955;19;129354;-48
